Disclaimer

Please do not use the information listed here in-flight or in-navigation, as they are not provided to us by the airports but are provided by volunteers, so they might be outdated.

Search


Regions


Airport information page

No radio frequency information is available.

Airport informations:
Latitude: 50° 57' 22.00" N
Longitude: 000° 56' 21.00" E
Elevation: 13 feet - 4 meters
Operating hours: Remarks
Operating agency: Civil government, landing fees and diplomatic clearance may be required
Timezone: UTC 0(+1DT) - Last Sunday in March to last Sunday in October
Fuel: 100/130 MIL Spec, low lead, aviation gasoline (BLUE)

Runway information:
03/21 - 4938 x 121 feet< - >1505 x 37 meters
14/32 - 2264 x 115 feet< - >690 x 35 meters

Recent METARs:
EGMD 210650Z AUTO 18015KT 9999 SCT022/// BKN034/// OVC040/// 05/02 Q1009
EGMD 210720Z AUTO 19014KT 9999 BKN022/// BKN028/// BKN037/// 05/01 Q1010
EGMD 210750Z AUTO 18016KT 9999 SCT020/// BKN031/// 05/02 Q1011

Airport on the map: